sensor_id;sensor_type;location;lat;lon;timestamp;temperature;humidity
24152;DHT22;12311;50.866;4.332;2023-02-28T07:00:42;2.10;99.90
24152;DHT22;12311;50.866;4.332;2023-02-28T07:03:09;2.20;99.90
24152;DHT22;12311;50.866;4.332;2023-02-28T07:05:35;2.40;99.90
24152;DHT22;12311;50.866;4.332;2023-02-28T07:08:02;2.40;99.90
24152;DHT22;12311;50.866;4.332;2023-02-28T07:10:29;2.30;99.90
24152;DHT22;12311;50.866;4.332;2023-02-28T07:12:54;2.30;99.90
24152;DHT22;12311;50.866;4.332;2023-02-28T07:15:20;2.40;99.90
24152;DHT22;12311;50.866;4.332;2023-02-28T07:17:45;2.40;99.90
24152;DHT22;12311;50.866;4.332;2023-02-28T07:20:11;2.50;99.90
24152;DHT22;12311;50.866;4.332;2023-02-28T07:22:37;2.40;99.90
24152;DHT22;12311;50.866;4.332;2023-02-28T07:25:04;2.40;99.90
24152;DHT22;12311;50.866;4.332;2023-02-28T07:27:30;2.50;99.90
24152;DHT22;12311;50.866;4.332;2023-02-28T07:29:56;2.40;99.90
24152;DHT22;12311;50.866;4.332;2023-02-28T07:32:22;2.40;99.90
24152;DHT22;12311;50.866;4.332;2023-02-28T07:34:48;2.50;99.90
24152;DHT22;12311;50.866;4.332;2023-02-28T07:37:14;2.50;99.90
24152;DHT22;12311;50.866;4.332;2023-02-28T07:39:40;2.50;99.90
24152;DHT22;12311;50.866;4.332;2023-02-28T07:42:09;2.50;99.90
24152;DHT22;12311;50.866;4.332;2023-02-28T07:44:39;2.50;99.90
24152;DHT22;12311;50.866;4.332;2023-02-28T07:47:11;2.70;99.90
24152;DHT22;12311;50.866;4.332;2023-02-28T07:49:37;2.80;99.90
24152;DHT22;12311;50.866;4.332;2023-02-28T07:52:06;2.90;99.90
24152;DHT22;12311;50.866;4.332;2023-02-28T07:54:32;2.90;99.90
24152;DHT22;12311;50.866;4.332;2023-02-28T07:56:58;2.90;99.90
24152;DHT22;12311;50.866;4.332;2023-02-28T07:59:24;2.90;99.90
24152;DHT22;12311;50.866;4.332;2023-02-28T08:01:50;3.00;99.90
24152;DHT22;12311;50.866;4.332;2023-02-28T08:04:17;3.10;99.90
24152;DHT22;12311;50.866;4.332;2023-02-28T08:06:43;3.10;99.90
24152;DHT22;12311;50.866;4.332;2023-02-28T08:09:09;3.10;99.90
24152;DHT22;12311;50.866;4.332;2023-02-28T08:11:34;3.20;99.90
24152;DHT22;12311;50.866;4.332;2023-02-28T08:14:00;3.30;99.90
24152;DHT22;12311;50.866;4.332;2023-02-28T08:16:26;3.40;99.90
24152;DHT22;12311;50.866;4.332;2023-02-28T08:18:52;3.50;99.90
24152;DHT22;12311;50.866;4.332;2023-02-28T08:21:19;3.60;99.90
24152;DHT22;12311;50.866;4.332;2023-02-28T08:23:47;3.60;99.90
24152;DHT22;12311;50.866;4.332;2023-02-28T08:26:13;3.60;99.90
24152;DHT22;12311;50.866;4.332;2023-02-28T08:28:38;3.80;99.90
24152;DHT22;12311;50.866;4.332;2023-02-28T08:31:12;3.80;99.90
24152;DHT22;12311;50.866;4.332;2023-02-28T08:33:39;4.00;99.90
24152;DHT22;12311;50.866;4.332;2023-02-28T08:36:06;4.10;99.90
24152;DHT22;12311;50.866;4.332;2023-02-28T08:38:33;4.40;99.90
24152;DHT22;12311;50.866;4.332;2023-02-28T08:41:00;4.40;99.90
24152;DHT22;12311;50.866;4.332;2023-02-28T08:43:28;4.50;99.90
24152;DHT22;12311;50.866;4.332;2023-02-28T08:45:54;4.50;99.90
24152;DHT22;12311;50.866;4.332;2023-02-28T08:48:23;4.50;99.90
24152;DHT22;12311;50.866;4.332;2023-02-28T08:51:02;4.40;99.90
24152;DHT22;12311;50.866;4.332;2023-02-28T08:53:28;4.30;99.90
24152;DHT22;12311;50.866;4.332;2023-02-28T08:56:03;4.10;99.90
24152;DHT22;12311;50.866;4.332;2023-02-28T08:58:29;4.20;99.90
24152;DHT22;12311;50.866;4.332;2023-02-28T09:00:55;4.20;99.90
24152;DHT22;12311;50.866;4.332;2023-02-28T09:03:21;4.20;99.90
24152;DHT22;12311;50.866;4.332;2023-02-28T09:05:59;4.10;99.90
24152;DHT22;12311;50.866;4.332;2023-02-28T09:08:28;4.00;99.90
24152;DHT22;12311;50.866;4.332;2023-02-28T09:10:56;4.00;99.90
24152;DHT22;12311;50.866;4.332;2023-02-28T09:13:24;4.00;99.90
24152;DHT22;12311;50.866;4.332;2023-02-28T09:15:50;4.00;99.90
24152;DHT22;12311;50.866;4.332;2023-02-28T09:18:16;4.00;99.90
24152;DHT22;12311;50.866;4.332;2023-02-28T09:20:42;4.00;99.90
24152;DHT22;12311;50.866;4.332;2023-02-28T09:23:10;4.00;99.90
24152;DHT22;12311;50.866;4.332;2023-02-28T09:25:36;4.00;99.90
24152;DHT22;12311;50.866;4.332;2023-02-28T09:28:03;4.10;99.90
24152;DHT22;12311;50.866;4.332;2023-02-28T09:30:29;4.10;99.90
24152;DHT22;12311;50.866;4.332;2023-02-28T09:32:55;4.10;99.90
24152;DHT22;12311;50.866;4.332;2023-02-28T09:35:21;4.10;99.90
24152;DHT22;12311;50.866;4.332;2023-02-28T09:37:48;4.30;99.90
24152;DHT22;12311;50.866;4.332;2023-02-28T09:40:15;4.40;99.90
24152;DHT22;12311;50.866;4.332;2023-02-28T09:42:45;4.40;99.90
24152;DHT22;12311;50.866;4.332;2023-02-28T09:45:31;4.40;99.90
24152;DHT22;12311;50.866;4.332;2023-02-28T09:48:14;4.40;99.90
24152;DHT22;12311;50.866;4.332;2023-02-28T09:50:48;4.50;99.90
24152;DHT22;12311;50.866;4.332;2023-02-28T09:53:33;4.70;99.90
24152;DHT22;12311;50.866;4.332;2023-02-28T09:56:09;4.80;99.90
24152;DHT22;12311;50.866;4.332;2023-02-28T09:58:54;5.00;99.90
24152;DHT22;12311;50.866;4.332;2023-02-28T10:06:55;4.90;99.90
24152;DHT22;12311;50.866;4.332;2023-02-28T10:09:25;5.10;99.90
24152;DHT22;12311;50.866;4.332;2023-02-28T10:11:54;5.10;99.90
24152;DHT22;12311;50.866;4.332;2023-02-28T10:14:27;5.20;99.90
24152;DHT22;12311;50.866;4.332;2023-02-28T10:16:58;5.20;99.90
24152;DHT22;12311;50.866;4.332;2023-02-28T10:22:11;5.20;99.90
24152;DHT22;12311;50.866;4.332;2023-02-28T10:24:42;5.50;99.90
24152;DHT22;12311;50.866;4.332;2023-02-28T10:27:24;5.70;99.90
24152;DHT22;12311;50.866;4.332;2023-02-28T10:29:53;5.80;99.90
24152;DHT22;12311;50.866;4.332;2023-02-28T10:32:21;5.80;99.90
24152;DHT22;12311;50.866;4.332;2023-02-28T10:35:00;5.80;99.90
24152;DHT22;12311;50.866;4.332;2023-02-28T10:37:27;5.90;99.90
24152;DHT22;12311;50.866;4.332;2023-02-28T10:39:53;6.00;99.90
24152;DHT22;12311;50.866;4.332;2023-02-28T10:42:27;6.10;99.90
24152;DHT22;12311;50.866;4.332;2023-02-28T10:45:13;6.20;99.90
24152;DHT22;12311;50.866;4.332;2023-02-28T10:47:54;6.30;99.90
24152;DHT22;12311;50.866;4.332;2023-02-28T10:58:47;6.80;99.90
24152;DHT22;12311;50.866;4.332;2023-02-28T11:07:19;6.80;98.10
24152;DHT22;12311;50.866;4.332;2023-02-28T11:09:48;6.90;99.20
24152;DHT22;12311;50.866;4.332;2023-02-28T11:12:25;7.10;98.10
24152;DHT22;12311;50.866;4.332;2023-02-28T11:14:57;7.20;98.80
24152;DHT22;12311;50.866;4.332;2023-02-28T11:17:30;7.10;98.10
24152;DHT22;12311;50.866;4.332;2023-02-28T11:19:59;7.30;97.70
24152;DHT22;12311;50.866;4.332;2023-02-28T11:22:31;7.50;98.00
24152;DHT22;12311;50.866;4.332;2023-02-28T11:25:00;7.70;98.50
24152;DHT22;12311;50.866;4.332;2023-02-28T11:29:56;7.80;96.60
24152;DHT22;12311;50.866;4.332;2023-02-28T11:32:23;7.80;96.70
24152;DHT22;12311;50.866;4.332;2023-02-28T11:35:22;7.70;96.60
24152;DHT22;12311;50.866;4.332;2023-02-28T11:37:48;7.40;97.10
24152;DHT22;12311;50.866;4.332;2023-02-28T11:40:22;7.50;96.20
24152;DHT22;12311;50.866;4.332;2023-02-28T11:48:49;7.60;96.50
24152;DHT22;12311;50.866;4.332;2023-02-28T11:51:21;7.80;96.50
24152;DHT22;12311;50.866;4.332;2023-02-28T11:56:27;8.30;94.30
24152;DHT22;12311;50.866;4.332;2023-02-28T11:59:31;8.40;93.70
24152;DHT22;12311;50.866;4.332;2023-02-28T12:05:31;8.30;93.80
24152;DHT22;12311;50.866;4.332;2023-02-28T12:27:34;9.30;90.60
24152;DHT22;12311;50.866;4.332;2023-02-28T12:33:08;9.00;90.20
24152;DHT22;12311;50.866;4.332;2023-02-28T12:35:44;9.00;90.30
24152;DHT22;12311;50.866;4.332;2023-02-28T12:38:17;9.10;90.00
24152;DHT22;12311;50.866;4.332;2023-02-28T12:40:55;9.40;89.30
24152;DHT22;12311;50.866;4.332;2023-02-28T12:43:27;9.50;89.30
24152;DHT22;12311;50.866;4.332;2023-02-28T12:45:59;9.80;86.30
24152;DHT22;12311;50.866;4.332;2023-02-28T12:51:05;9.70;82.10
24152;DHT22;12311;50.866;4.332;2023-02-28T12:56:56;9.90;81.70
24152;DHT22;12311;50.866;4.332;2023-02-28T12:59:32;9.90;81.50
24152;DHT22;12311;50.866;4.332;2023-02-28T13:04:53;10.20;80.50
24152;DHT22;12311;50.866;4.332;2023-02-28T13:10:17;10.10;77.00
24152;DHT22;12311;50.866;4.332;2023-02-28T13:12:52;10.10;76.90
24152;DHT22;12311;50.866;4.332;2023-02-28T13:15:26;10.10;76.60
24152;DHT22;12311;50.866;4.332;2023-02-28T13:17:56;10.10;76.70
24152;DHT22;12311;50.866;4.332;2023-02-28T13:20:34;10.20;74.80
24152;DHT22;12311;50.866;4.332;2023-02-28T13:23:00;10.20;75.30
24152;DHT22;12311;50.866;4.332;2023-02-28T13:27:59;10.10;74.30
24152;DHT22;12311;50.866;4.332;2023-02-28T13:38:45;10.00;72.50
24152;DHT22;12311;50.866;4.332;2023-02-28T13:44:13;9.90;71.70
24152;DHT22;12311;50.866;4.332;2023-02-28T14:00:07;10.20;71.70
24152;DHT22;12311;50.866;4.332;2023-02-28T14:02:45;10.00;70.30
24152;DHT22;12311;50.866;4.332;2023-02-28T14:05:17;10.20;69.80
24152;DHT22;12311;50.866;4.332;2023-02-28T14:07:49;10.30;69.70
24152;DHT22;12311;50.866;4.332;2023-02-28T14:10:45;10.30;69.60
24152;DHT22;12311;50.866;4.332;2023-02-28T14:16:10;10.50;68.40
24152;DHT22;12311;50.866;4.332;2023-02-28T14:18:40;10.50;69.50
24152;DHT22;12311;50.866;4.332;2023-02-28T14:21:25;10.40;68.90
24152;DHT22;12311;50.866;4.332;2023-02-28T14:37:02;10.50;69.30
24152;DHT22;12311;50.866;4.332;2023-02-28T14:39:29;10.30;69.10
24152;DHT22;12311;50.866;4.332;2023-02-28T14:41:58;10.30;69.10
24152;DHT22;12311;50.866;4.332;2023-02-28T14:44:29;10.50;68.60
24152;DHT22;12311;50.866;4.332;2023-02-28T14:46:55;10.80;67.90
24152;DHT22;12311;50.866;4.332;2023-02-28T14:49:34;10.40;66.50
24152;DHT22;12311;50.866;4.332;2023-02-28T14:52:14;10.10;68.70
24152;DHT22;12311;50.866;4.332;2023-02-28T14:54:41;10.30;68.00
24152;DHT22;12311;50.866;4.332;2023-02-28T14:57:27;10.00;68.10
24152;DHT22;12311;50.866;4.332;2023-02-28T15:02:38;10.40;67.80
24152;DHT22;12311;50.866;4.332;2023-02-28T15:05:21;10.40;68.50
24152;DHT22;12311;50.866;4.332;2023-02-28T15:07:48;10.40;68.00
24152;DHT22;12311;50.866;4.332;2023-02-28T15:10:27;10.60;67.80
24152;DHT22;12311;50.866;4.332;2023-02-28T15:12:59;10.60;67.20
24152;DHT22;12311;50.866;4.332;2023-02-28T15:15:40;10.60;67.70
24152;DHT22;12311;50.866;4.332;2023-02-28T15:18:07;10.70;67.60
24152;DHT22;12311;50.866;4.332;2023-02-28T15:20:39;10.70;67.50
24152;DHT22;12311;50.866;4.332;2023-02-28T15:23:06;10.40;68.70
24152;DHT22;12311;50.866;4.332;2023-02-28T15:25:31;10.60;68.90
24152;DHT22;12311;50.866;4.332;2023-02-28T15:27:59;10.70;68.10
24152;DHT22;12311;50.866;4.332;2023-02-28T15:30:30;10.80;68.30
24152;DHT22;12311;50.866;4.332;2023-02-28T15:35:38;10.40;69.80
24152;DHT22;12311;50.866;4.332;2023-02-28T15:38:16;10.30;70.20
24152;DHT22;12311;50.866;4.332;2023-02-28T15:40:50;10.00;70.00
24152;DHT22;12311;50.866;4.332;2023-02-28T15:43:27;10.00;70.20
24152;DHT22;12311;50.866;4.332;2023-02-28T15:45:59;10.20;69.90
24152;DHT22;12311;50.866;4.332;2023-02-28T15:51:17;10.30;69.40
24152;DHT22;12311;50.866;4.332;2023-02-28T15:54:07;10.30;69.10
24152;DHT22;12311;50.866;4.332;2023-02-28T15:56:40;10.20;70.40
24152;DHT22;12311;50.866;4.332;2023-02-28T15:59:15;10.20;70.00
24152;DHT22;12311;50.866;4.332;2023-02-28T16:01:42;10.20;70.50
24152;DHT22;12311;50.866;4.332;2023-02-28T16:04:16;10.20;70.00
24152;DHT22;12311;50.866;4.332;2023-02-28T16:06:46;10.20;70.40
24152;DHT22;12311;50.866;4.332;2023-02-28T16:09:16;10.20;70.60
24152;DHT22;12311;50.866;4.332;2023-02-28T16:11:46;10.00;71.30
24152;DHT22;12311;50.866;4.332;2023-02-28T16:14:16;9.80;71.50
24152;DHT22;12311;50.866;4.332;2023-02-28T16:16:47;9.80;72.10
24152;DHT22;12311;50.866;4.332;2023-02-28T16:19:13;9.60;71.80
24152;DHT22;12311;50.866;4.332;2023-02-28T16:21:38;9.30;72.40
24152;DHT22;12311;50.866;4.332;2023-02-28T16:24:05;8.90;73.40
24152;DHT22;12311;50.866;4.332;2023-02-28T16:26:33;8.70;74.70
24152;DHT22;12311;50.866;4.332;2023-02-28T16:29:03;8.30;75.80
24152;DHT22;12311;50.866;4.332;2023-02-28T16:31:29;8.40;76.90
24152;DHT22;12311;50.866;4.332;2023-02-28T16:33:56;8.10;77.80
24152;DHT22;12311;50.866;4.332;2023-02-28T16:36:23;7.80;78.40
24152;DHT22;12311;50.866;4.332;2023-02-28T16:38:51;7.70;79.20
24152;DHT22;12311;50.866;4.332;2023-02-28T16:41:24;7.30;80.70
24152;DHT22;12311;50.866;4.332;2023-02-28T16:43:52;7.00;81.70
24152;DHT22;12311;50.866;4.332;2023-02-28T16:46:19;6.70;83.10
24152;DHT22;12311;50.866;4.332;2023-02-28T16:48:46;6.40;84.60
24152;DHT22;12311;50.866;4.332;2023-02-28T16:51:15;6.40;85.30
24152;DHT22;12311;50.866;4.332;2023-02-28T16:53:41;6.40;86.00
24152;DHT22;12311;50.866;4.332;2023-02-28T16:56:20;6.30;86.60
24152;DHT22;12311;50.866;4.332;2023-02-28T16:58:47;6.20;87.70
24152;DHT22;12311;50.866;4.332;2023-02-28T17:01:13;6.00;89.20
24152;DHT22;12311;50.866;4.332;2023-02-28T17:03:38;5.90;90.20
24152;DHT22;12311;50.866;4.332;2023-02-28T17:06:08;6.00;90.40
24152;DHT22;12311;50.866;4.332;2023-02-28T17:08:41;5.80;90.80
24152;DHT22;12311;50.866;4.332;2023-02-28T17:11:07;5.70;91.30
24152;DHT22;12311;50.866;4.332;2023-02-28T17:13:33;5.70;91.70
24152;DHT22;12311;50.866;4.332;2023-02-28T17:16:00;5.60;92.20
24152;DHT22;12311;50.866;4.332;2023-02-28T17:18:25;5.60;92.60
24152;DHT22;12311;50.866;4.332;2023-02-28T17:20:52;5.60;92.80
24152;DHT22;12311;50.866;4.332;2023-02-28T17:23:17;5.50;93.30
24152;DHT22;12311;50.866;4.332;2023-02-28T17:25:43;5.40;93.50
24152;DHT22;12311;50.866;4.332;2023-02-28T17:28:19;5.30;94.00
24152;DHT22;12311;50.866;4.332;2023-02-28T17:30:45;5.30;94.10
24152;DHT22;12311;50.866;4.332;2023-02-28T17:33:13;5.30;94.00
24152;DHT22;12311;50.866;4.332;2023-02-28T17:35:38;5.30;94.10
24152;DHT22;12311;50.866;4.332;2023-02-28T17:38:04;5.20;94.60
24152;DHT22;12311;50.866;4.332;2023-02-28T17:40:30;5.10;94.90
24152;DHT22;12311;50.866;4.332;2023-02-28T17:42:55;5.10;94.80
24152;DHT22;12311;50.866;4.332;2023-02-28T17:45:22;5.10;95.10
24152;DHT22;12311;50.866;4.332;2023-02-28T17:47:49;5.10;95.30
24152;DHT22;12311;50.866;4.332;2023-02-28T17:50:20;4.90;95.60
24152;DHT22;12311;50.866;4.332;2023-02-28T17:52:47;5.00;95.80
24152;DHT22;12311;50.866;4.332;2023-02-28T17:55:13;4.90;96.00
24152;DHT22;12311;50.866;4.332;2023-02-28T17:57:39;4.90;96.10
24152;DHT22;12311;50.866;4.332;2023-02-28T18:00:07;4.90;96.40
24152;DHT22;12311;50.866;4.332;2023-02-28T18:02:33;4.90;96.70
24152;DHT22;12311;50.866;4.332;2023-02-28T18:04:59;4.80;97.00
24152;DHT22;12311;50.866;4.332;2023-02-28T18:07:25;4.70;97.50
24152;DHT22;12311;50.866;4.332;2023-02-28T18:09:50;4.60;98.10
24152;DHT22;12311;50.866;4.332;2023-02-28T18:12:16;4.60;98.70
24152;DHT22;12311;50.866;4.332;2023-02-28T18:14:42;4.50;99.10
24152;DHT22;12311;50.866;4.332;2023-02-28T18:17:09;4.60;99.30
24152;DHT22;12311;50.866;4.332;2023-02-28T18:19:37;4.50;99.70
24152;DHT22;12311;50.866;4.332;2023-02-28T18:22:04;4.50;99.90
24152;DHT22;12311;50.866;4.332;2023-02-28T18:24:32;4.40;99.90
24152;DHT22;12311;50.866;4.332;2023-02-28T18:26:58;4.30;99.90
24152;DHT22;12311;50.866;4.332;2023-02-28T18:29:26;4.30;99.90
24152;DHT22;12311;50.866;4.332;2023-02-28T18:31:53;4.10;99.90
24152;DHT22;12311;50.866;4.332;2023-02-28T18:34:19;4.10;99.90
24152;DHT22;12311;50.866;4.332;2023-02-28T18:36:46;4.20;99.90
24152;DHT22;12311;50.866;4.332;2023-02-28T18:39:14;4.20;99.90
24152;DHT22;12311;50.866;4.332;2023-02-28T18:41:39;4.20;99.90
24152;DHT22;12311;50.866;4.332;2023-02-28T18:44:05;4.10;99.90
24152;DHT22;12311;50.866;4.332;2023-02-28T18:46:32;4.00;99.90
24152;DHT22;12311;50.866;4.332;2023-02-28T18:48:57;3.90;99.90
24152;DHT22;12311;50.866;4.332;2023-02-28T18:51:25;4.00;99.90
24152;DHT22;12311;50.866;4.332;2023-02-28T18:53:51;3.90;99.90
24152;DHT22;12311;50.866;4.332;2023-02-28T18:56:20;3.80;99.90
24152;DHT22;12311;50.866;4.332;2023-02-28T18:58:47;3.80;99.90
24152;DHT22;12311;50.866;4.332;2023-02-28T19:01:25;3.80;99.90
24152;DHT22;12311;50.866;4.332;2023-02-28T19:03:54;3.80;99.90
24152;DHT22;12311;50.866;4.332;2023-02-28T19:06:20;3.80;99.90
24152;DHT22;12311;50.866;4.332;2023-02-28T19:08:46;3.70;99.90
24152;DHT22;12311;50.866;4.332;2023-02-28T19:11:17;3.70;99.90
24152;DHT22;12311;50.866;4.332;2023-02-28T19:13:44;3.70;99.90
24152;DHT22;12311;50.866;4.332;2023-02-28T19:16:11;3.70;99.90
24152;DHT22;12311;50.866;4.332;2023-02-28T19:18:37;3.60;99.90
24152;DHT22;12311;50.866;4.332;2023-02-28T19:21:09;3.50;99.90
24152;DHT22;12311;50.866;4.332;2023-02-28T19:23:35;3.40;99.90
24152;DHT22;12311;50.866;4.332;2023-02-28T19:26:05;3.50;99.90
24152;DHT22;12311;50.866;4.332;2023-02-28T19:28:31;3.50;99.90
24152;DHT22;12311;50.866;4.332;2023-02-28T19:30:57;3.40;99.90
24152;DHT22;12311;50.866;4.332;2023-02-28T19:33:22;3.40;99.90
24152;DHT22;12311;50.866;4.332;2023-02-28T19:35:48;3.30;99.90
24152;DHT22;12311;50.866;4.332;2023-02-28T19:38:14;3.20;99.90
24152;DHT22;12311;50.866;4.332;2023-02-28T19:40:40;3.20;99.90
24152;DHT22;12311;50.866;4.332;2023-02-28T19:43:06;3.20;99.90
24152;DHT22;12311;50.866;4.332;2023-02-28T19:45:33;3.20;99.90
24152;DHT22;12311;50.866;4.332;2023-02-28T19:47:59;3.20;99.90
24152;DHT22;12311;50.866;4.332;2023-02-28T19:50:24;3.20;99.90
24152;DHT22;12311;50.866;4.332;2023-02-28T19:52:50;3.30;99.90
24152;DHT22;12311;50.866;4.332;2023-02-28T19:55:16;3.20;99.90
24152;DHT22;12311;50.866;4.332;2023-02-28T19:57:42;3.20;99.90
24152;DHT22;12311;50.866;4.332;2023-02-28T20:00:10;3.20;99.90
24152;DHT22;12311;50.866;4.332;2023-02-28T20:02:36;3.20;99.90
24152;DHT22;12311;50.866;4.332;2023-02-28T20:05:02;3.20;99.90
24152;DHT22;12311;50.866;4.332;2023-02-28T20:07:28;3.20;99.90
24152;DHT22;12311;50.866;4.332;2023-02-28T20:09:54;3.20;99.90
24152;DHT22;12311;50.866;4.332;2023-02-28T20:12:20;3.20;99.90
24152;DHT22;12311;50.866;4.332;2023-02-28T20:14:52;3.20;99.90
24152;DHT22;12311;50.866;4.332;2023-02-28T20:17:18;3.10;99.90
24152;DHT22;12311;50.866;4.332;2023-02-28T20:19:44;3.10;99.90
24152;DHT22;12311;50.866;4.332;2023-02-28T20:22:09;3.10;99.90
24152;DHT22;12311;50.866;4.332;2023-02-28T20:24:36;3.00;99.90
24152;DHT22;12311;50.866;4.332;2023-02-28T20:27:02;3.00;99.90
24152;DHT22;12311;50.866;4.332;2023-02-28T20:29:28;3.00;99.90
24152;DHT22;12311;50.866;4.332;2023-02-28T20:31:54;3.00;99.90
24152;DHT22;12311;50.866;4.332;2023-02-28T20:34:20;3.00;99.90
24152;DHT22;12311;50.866;4.332;2023-02-28T20:36:48;3.00;99.90
24152;DHT22;12311;50.866;4.332;2023-02-28T20:39:14;2.90;99.90
24152;DHT22;12311;50.866;4.332;2023-02-28T20:41:40;2.90;99.90
24152;DHT22;12311;50.866;4.332;2023-02-28T20:44:06;2.90;99.90
24152;DHT22;12311;50.866;4.332;2023-02-28T20:46:31;2.90;99.90
24152;DHT22;12311;50.866;4.332;2023-02-28T20:48:59;2.90;99.90
24152;DHT22;12311;50.866;4.332;2023-02-28T20:51:24;2.90;99.90
24152;DHT22;12311;50.866;4.332;2023-02-28T20:53:50;3.00;99.90
24152;DHT22;12311;50.866;4.332;2023-02-28T20:56:18;3.00;99.90
24152;DHT22;12311;50.866;4.332;2023-02-28T20:58:46;2.90;99.90
24152;DHT22;12311;50.866;4.332;2023-02-28T21:01:17;3.00;99.90
24152;DHT22;12311;50.866;4.332;2023-02-28T21:03:47;3.00;99.90
24152;DHT22;12311;50.866;4.332;2023-02-28T21:06:14;3.00;99.90
24152;DHT22;12311;50.866;4.332;2023-02-28T21:08:41;2.80;99.90
24152;DHT22;12311;50.866;4.332;2023-02-28T21:11:25;2.80;99.90
24152;DHT22;12311;50.866;4.332;2023-02-28T21:13:51;2.80;99.90
24152;DHT22;12311;50.866;4.332;2023-02-28T21:16:20;2.80;99.90
24152;DHT22;12311;50.866;4.332;2023-02-28T21:18:47;2.80;99.90
24152;DHT22;12311;50.866;4.332;2023-02-28T21:21:15;2.70;99.90
